Terminal Aerodrome Forecast
Issued by NWS

Home | Current Version | Previous Version | Text Only | Print | Product List | Glossary On
Versions: 1 2 3 4 5 6 7 8 9 10 11 12 13 14 15
000
FTUS42 KTAE 272338
TAFABY
TAF
KABY 272338Z 2800/2824 00000KT P6SM SCT100 OVC250
     FM281200 10010KT P6SM OVC025
     FM282000 12008KT P6SM VCTS BKN030CB=

USA.gov is the U.S. government's official web portal to all federal, state and local government web resources and services.